sensor_id;sensor_type;location;lat;lon;timestamp;pressure;altitude;pressure_sealevel;temperature;humidity
64602;BME280;51013;42.630;23.192;2022-10-16T00:01:15;92959.09;;;6.00;85.54
64602;BME280;51013;42.630;23.192;2022-10-16T00:03:44;92964.78;;;6.03;85.81
64602;BME280;51013;42.630;23.192;2022-10-16T00:06:12;92962.66;;;6.05;85.56
64602;BME280;51013;42.630;23.192;2022-10-16T00:08:41;92970.56;;;5.99;85.89
64602;BME280;51013;42.630;23.192;2022-10-16T00:11:10;92970.09;;;5.97;86.04
64602;BME280;51013;42.630;23.192;2022-10-16T00:13:39;92980.88;;;5.91;85.89
64602;BME280;51013;42.630;23.192;2022-10-16T00:16:11;92977.03;;;5.88;85.91
64602;BME280;51013;42.630;23.192;2022-10-16T00:18:39;92982.25;;;5.88;85.76
64602;BME280;51013;42.630;23.192;2022-10-16T00:21:08;92974.91;;;5.90;85.80
64602;BME280;51013;42.630;23.192;2022-10-16T00:23:35;92781.44;;;4.46;85.66
64602;BME280;51013;42.630;23.192;2022-10-16T00:26:07;92966.69;;;5.69;86.36
64602;BME280;51013;42.630;23.192;2022-10-16T00:28:35;92976.16;;;5.79;85.95
64602;BME280;51013;42.630;23.192;2022-10-16T00:31:04;92974.63;;;5.78;85.96
64602;BME280;51013;42.630;23.192;2022-10-16T00:33:31;92962.44;;;5.59;86.04
64602;BME280;51013;42.630;23.192;2022-10-16T00:35:58;92948.28;;;5.52;86.01
64602;BME280;51013;42.630;23.192;2022-10-16T00:38:25;92980.41;;;5.75;86.41
64602;BME280;51013;42.630;23.192;2022-10-16T00:40:52;92841.41;;;4.69;86.35
64602;BME280;51013;42.630;23.192;2022-10-16T00:43:36;92978.47;;;5.67;86.17
64602;BME280;51013;42.630;23.192;2022-10-16T00:46:07;92915.63;;;5.27;86.13
64602;BME280;51013;42.630;23.192;2022-10-16T00:48:37;92978.75;;;5.65;86.04
64602;BME280;51013;42.630;23.192;2022-10-16T00:51:05;92972.31;;;5.62;85.72
64602;BME280;51013;42.630;23.192;2022-10-16T00:53:33;92942.56;;;5.36;85.92
64602;BME280;51013;42.630;23.192;2022-10-16T00:56:01;92875.88;;;4.93;85.99
64602;BME280;51013;42.630;23.192;2022-10-16T00:58:28;92719.19;;;3.89;85.65
64602;BME280;51013;42.630;23.192;2022-10-16T01:00:57;92933.03;;;5.31;85.80
64602;BME280;51013;42.630;23.192;2022-10-16T01:03:27;92983.19;;;5.51;86.39
64602;BME280;51013;42.630;23.192;2022-10-16T01:06:04;92911.88;;;5.05;86.10
64602;BME280;51013;42.630;23.192;2022-10-16T01:08:42;92971.25;;;5.50;86.13
64602;BME280;51013;42.630;23.192;2022-10-16T01:11:16;92832.41;;;4.47;86.02
64602;BME280;51013;42.630;23.192;2022-10-16T01:13:50;92975.84;;;5.39;86.39
64602;BME280;51013;42.630;23.192;2022-10-16T01:16:29;92978.88;;;5.46;86.63
64602;BME280;51013;42.630;23.192;2022-10-16T01:19:04;92981.16;;;5.34;86.66
64602;BME280;51013;42.630;23.192;2022-10-16T01:21:36;92796.00;;;4.14;86.28
64602;BME280;51013;42.630;23.192;2022-10-16T01:24:10;92816.66;;;4.25;86.29
64602;BME280;51013;42.630;23.192;2022-10-16T01:27:00;92907.50;;;4.87;86.42
64602;BME280;51013;42.630;23.192;2022-10-16T01:29:31;92905.28;;;4.94;86.19
64602;BME280;51013;42.630;23.192;2022-10-16T01:32:04;92892.72;;;4.82;86.21
64602;BME280;51013;42.630;23.192;2022-10-16T01:34:35;92956.81;;;5.25;86.35
64602;BME280;51013;42.630;23.192;2022-10-16T01:37:07;92974.09;;;5.20;86.07
64602;BME280;51013;42.630;23.192;2022-10-16T01:39:38;92812.47;;;4.10;86.09
64602;BME280;51013;42.630;23.192;2022-10-16T01:42:11;92872.69;;;4.50;86.29
64602;BME280;51013;42.630;23.192;2022-10-16T01:44:41;92912.09;;;4.76;86.08
64602;BME280;51013;42.630;23.192;2022-10-16T01:47:10;92979.09;;;5.17;86.48
64602;BME280;51013;42.630;23.192;2022-10-16T01:49:40;92974.75;;;5.12;86.31
64602;BME280;51013;42.630;23.192;2022-10-16T01:52:12;92852.00;;;4.26;86.52
64602;BME280;51013;42.630;23.192;2022-10-16T01:54:43;92976.59;;;5.12;86.47
64602;BME280;51013;42.630;23.192;2022-10-16T01:57:16;92986.78;;;5.08;86.18
64602;BME280;51013;42.630;23.192;2022-10-16T01:59:46;92951.41;;;4.74;86.23
64602;BME280;51013;42.630;23.192;2022-10-16T02:02:15;92992.94;;;4.98;86.23
64602;BME280;51013;42.630;23.192;2022-10-16T02:04:48;92965.00;;;4.71;86.49
64602;BME280;51013;42.630;23.192;2022-10-16T02:07:18;92997.38;;;4.98;86.70
64602;BME280;51013;42.630;23.192;2022-10-16T02:09:45;93012.03;;;4.94;87.05
64602;BME280;51013;42.630;23.192;2022-10-16T02:12:20;92981.31;;;4.77;87.02
64602;BME280;51013;42.630;23.192;2022-10-16T02:14:50;93006.06;;;4.93;87.07
64602;BME280;51013;42.630;23.192;2022-10-16T02:17:17;93005.84;;;4.90;87.00
64602;BME280;51013;42.630;23.192;2022-10-16T02:19:47;93001.81;;;4.97;86.78
64602;BME280;51013;42.630;23.192;2022-10-16T02:22:19;92897.81;;;4.21;86.86
64602;BME280;51013;42.630;23.192;2022-10-16T02:24:52;93016.75;;;4.92;86.85
64602;BME280;51013;42.630;23.192;2022-10-16T02:27:26;93018.59;;;4.91;86.80
64602;BME280;51013;42.630;23.192;2022-10-16T02:29:58;93032.94;;;4.89;87.24
64602;BME280;51013;42.630;23.192;2022-10-16T02:32:28;93019.72;;;4.85;86.52
64602;BME280;51013;42.630;23.192;2022-10-16T02:34:57;92877.38;;;3.77;86.52
64602;BME280;51013;42.630;23.192;2022-10-16T02:37:26;93020.63;;;4.75;86.71
64602;BME280;51013;42.630;23.192;2022-10-16T02:39:54;92954.91;;;4.32;86.77
64602;BME280;51013;42.630;23.192;2022-10-16T02:42:28;93038.38;;;4.73;87.01
64602;BME280;51013;42.630;23.192;2022-10-16T02:44:55;92889.56;;;3.81;86.81
64602;BME280;51013;42.630;23.192;2022-10-16T02:47:22;92705.66;;;2.59;86.78
64602;BME280;51013;42.630;23.192;2022-10-16T02:49:49;93034.50;;;4.71;86.72
64602;BME280;51013;42.630;23.192;2022-10-16T02:52:17;92905.47;;;3.75;87.00
64602;BME280;51013;42.630;23.192;2022-10-16T02:54:44;93033.53;;;4.67;87.29
64602;BME280;51013;42.630;23.192;2022-10-16T02:57:11;93028.31;;;4.67;86.78
64602;BME280;51013;42.630;23.192;2022-10-16T02:59:39;92999.78;;;4.43;86.90
64602;BME280;51013;42.630;23.192;2022-10-16T03:02:06;93030.50;;;4.59;87.11
64602;BME280;51013;42.630;23.192;2022-10-16T03:04:33;92995.41;;;4.38;87.08
64602;BME280;51013;42.630;23.192;2022-10-16T03:07:00;93000.63;;;4.38;86.82
64602;BME280;51013;42.630;23.192;2022-10-16T03:09:27;92962.56;;;4.04;86.57
64602;BME280;51013;42.630;23.192;2022-10-16T03:11:54;93030.28;;;4.56;86.87
64602;BME280;51013;42.630;23.192;2022-10-16T03:14:21;92901.41;;;3.69;86.88
64602;BME280;51013;42.630;23.192;2022-10-16T03:16:50;92995.69;;;4.36;86.52
64602;BME280;51013;42.630;23.192;2022-10-16T03:19:17;92863.53;;;3.44;86.34
64602;BME280;51013;42.630;23.192;2022-10-16T03:21:45;93027.47;;;4.52;86.65
64602;BME280;51013;42.630;23.192;2022-10-16T03:24:12;93031.22;;;4.46;86.88
64602;BME280;51013;42.630;23.192;2022-10-16T03:26:39;92978.88;;;4.10;87.13
64602;BME280;51013;42.630;23.192;2022-10-16T03:29:06;93037.19;;;4.47;86.88
64602;BME280;51013;42.630;23.192;2022-10-16T03:31:33;93039.56;;;4.43;86.93
64602;BME280;51013;42.630;23.192;2022-10-16T03:34:01;93035.97;;;4.39;87.14
64602;BME280;51013;42.630;23.192;2022-10-16T03:36:28;92953.81;;;3.76;87.05
64602;BME280;51013;42.630;23.192;2022-10-16T03:38:55;93036.25;;;4.37;87.02
64602;BME280;51013;42.630;23.192;2022-10-16T03:41:22;93035.25;;;4.33;86.87
64602;BME280;51013;42.630;23.192;2022-10-16T03:43:50;92971.72;;;4.01;86.75
64602;BME280;51013;42.630;23.192;2022-10-16T03:46:17;92906.31;;;3.51;86.68
64602;BME280;51013;42.630;23.192;2022-10-16T03:48:45;93033.44;;;4.34;86.82
64602;BME280;51013;42.630;23.192;2022-10-16T03:51:14;92910.94;;;3.54;86.54
64602;BME280;51013;42.630;23.192;2022-10-16T03:53:40;93029.06;;;4.29;86.60
64602;BME280;51013;42.630;23.192;2022-10-16T03:56:07;92799.97;;;2.74;86.80
64602;BME280;51013;42.630;23.192;2022-10-16T03:58:34;93030.03;;;4.14;87.60
64602;BME280;51013;42.630;23.192;2022-10-16T04:01:01;93027.94;;;4.16;87.82
64602;BME280;51013;42.630;23.192;2022-10-16T04:03:28;93026.88;;;4.17;87.66
64602;BME280;51013;42.630;23.192;2022-10-16T04:05:55;92947.25;;;3.59;87.37
64602;BME280;51013;42.630;23.192;2022-10-16T04:08:23;93031.56;;;4.15;87.42
64602;BME280;51013;42.630;23.192;2022-10-16T04:10:51;92933.28;;;3.55;86.90
64602;BME280;51013;42.630;23.192;2022-10-16T04:13:18;92911.13;;;3.39;86.74
64602;BME280;51013;42.630;23.192;2022-10-16T04:15:45;93020.63;;;4.18;87.00
64602;BME280;51013;42.630;23.192;2022-10-16T04:18:12;93018.31;;;4.17;87.11
64602;BME280;51013;42.630;23.192;2022-10-16T04:20:40;92987.84;;;3.79;87.48
64602;BME280;51013;42.630;23.192;2022-10-16T04:23:07;92802.97;;;2.57;87.34
64602;BME280;51013;42.630;23.192;2022-10-16T04:25:35;93025.59;;;3.96;87.48
64602;BME280;51013;42.630;23.192;2022-10-16T04:28:03;92978.94;;;3.61;87.95
64602;BME280;51013;42.630;23.192;2022-10-16T04:30:29;92851.78;;;2.79;87.57
64602;BME280;51013;42.630;23.192;2022-10-16T04:32:56;92965.88;;;3.42;87.70
64602;BME280;51013;42.630;23.192;2022-10-16T04:35:23;92977.66;;;3.59;87.98
64602;BME280;51013;42.630;23.192;2022-10-16T04:37:50;92922.50;;;3.19;87.71
64602;BME280;51013;42.630;23.192;2022-10-16T04:40:18;92896.66;;;3.09;87.45
64602;BME280;51013;42.630;23.192;2022-10-16T04:42:47;92993.16;;;3.69;87.47
64602;BME280;51013;42.630;23.192;2022-10-16T04:45:13;93022.22;;;3.95;87.64
64602;BME280;51013;42.630;23.192;2022-10-16T04:47:40;92763.16;;;2.18;87.37
64602;BME280;51013;42.630;23.192;2022-10-16T04:50:08;92952.47;;;3.35;87.77
64602;BME280;51013;42.630;23.192;2022-10-16T04:52:35;93045.63;;;3.95;87.58
64602;BME280;51013;42.630;23.192;2022-10-16T04:55:05;92969.31;;;3.38;87.45
64602;BME280;51013;42.630;23.192;2022-10-16T04:57:32;93034.75;;;3.88;87.70
64602;BME280;51013;42.630;23.192;2022-10-16T05:00:01;93051.34;;;3.92;88.05
64602;BME280;51013;42.630;23.192;2022-10-16T05:02:28;93061.81;;;3.87;88.26
64602;BME280;51013;42.630;23.192;2022-10-16T05:04:55;92977.69;;;3.30;88.37
64602;BME280;51013;42.630;23.192;2022-10-16T05:07:22;93060.50;;;3.90;88.75
64602;BME280;51013;42.630;23.192;2022-10-16T05:09:50;93059.69;;;3.89;88.76
64602;BME280;51013;42.630;23.192;2022-10-16T05:12:17;93061.81;;;3.87;89.24
64602;BME280;51013;42.630;23.192;2022-10-16T05:14:43;92858.53;;;2.51;89.31
64602;BME280;51013;42.630;23.192;2022-10-16T05:17:12;93069.91;;;3.86;89.26
64602;BME280;51013;42.630;23.192;2022-10-16T05:19:39;93062.41;;;3.79;89.26
64602;BME280;51013;42.630;23.192;2022-10-16T05:22:05;93054.59;;;3.79;89.55
64602;BME280;51013;42.630;23.192;2022-10-16T05:24:33;92893.59;;;2.48;89.42
64602;BME280;51013;42.630;23.192;2022-10-16T05:27:00;92940.09;;;2.98;89.60
64602;BME280;51013;42.630;23.192;2022-10-16T05:29:26;92990.66;;;3.35;89.66
64602;BME280;51013;42.630;23.192;2022-10-16T05:31:53;93027.31;;;3.57;90.08
64602;BME280;51013;42.630;23.192;2022-10-16T05:34:23;93043.31;;;3.65;89.93
64602;BME280;51013;42.630;23.192;2022-10-16T05:36:50;92887.97;;;2.65;90.31
64602;BME280;51013;42.630;23.192;2022-10-16T05:39:17;92917.94;;;2.81;90.67
64602;BME280;51013;42.630;23.192;2022-10-16T05:41:44;93052.91;;;3.69;91.38
64602;BME280;51013;42.630;23.192;2022-10-16T05:44:11;93080.56;;;3.84;92.28
64602;BME280;51013;42.630;23.192;2022-10-16T05:46:38;93075.13;;;3.80;93.07
64602;BME280;51013;42.630;23.192;2022-10-16T05:49:05;93037.97;;;3.56;93.97
64602;BME280;51013;42.630;23.192;2022-10-16T05:51:33;92987.16;;;3.20;95.61
64602;BME280;51013;42.630;23.192;2022-10-16T05:54:00;93055.06;;;3.62;97.05
64602;BME280;51013;42.630;23.192;2022-10-16T05:56:27;92840.81;;;2.34;97.38
64602;BME280;51013;42.630;23.192;2022-10-16T05:58:54;92939.31;;;2.97;98.21
64602;BME280;51013;42.630;23.192;2022-10-16T06:01:21;92970.81;;;3.44;99.35
64602;BME280;51013;42.630;23.192;2022-10-16T06:03:50;93094.72;;;4.21;100.00
64602;BME280;51013;42.630;23.192;2022-10-16T06:06:21;93045.41;;;3.92;100.00
64602;BME280;51013;42.630;23.192;2022-10-16T06:08:50;93048.00;;;3.92;100.00
64602;BME280;51013;42.630;23.192;2022-10-16T06:11:18;93103.22;;;4.51;100.00
64602;BME280;51013;42.630;23.192;2022-10-16T06:13:49;93107.72;;;4.64;100.00
64602;BME280;51013;42.630;23.192;2022-10-16T06:16:16;92989.69;;;3.98;100.00
64602;BME280;51013;42.630;23.192;2022-10-16T06:18:43;93104.00;;;4.89;100.00
64602;BME280;51013;42.630;23.192;2022-10-16T06:21:11;93047.44;;;4.57;100.00
64602;BME280;51013;42.630;23.192;2022-10-16T06:23:38;92952.88;;;4.10;100.00
64602;BME280;51013;42.630;23.192;2022-10-16T06:26:09;93006.66;;;4.52;100.00
64602;BME280;51013;42.630;23.192;2022-10-16T06:28:36;93118.66;;;5.37;100.00
64602;BME280;51013;42.630;23.192;2022-10-16T06:31:05;93118.16;;;5.54;100.00
64602;BME280;51013;42.630;23.192;2022-10-16T06:33:32;93120.78;;;5.68;100.00
64602;BME280;51013;42.630;23.192;2022-10-16T06:36:02;93085.25;;;5.58;100.00
64602;BME280;51013;42.630;23.192;2022-10-16T06:38:30;92983.72;;;5.06;100.00
64602;BME280;51013;42.630;23.192;2022-10-16T06:40:58;93008.41;;;5.41;100.00
64602;BME280;51013;42.630;23.192;2022-10-16T06:43:28;93121.00;;;6.32;100.00
64602;BME280;51013;42.630;23.192;2022-10-16T06:45:57;93123.81;;;6.49;100.00
64602;BME280;51013;42.630;23.192;2022-10-16T06:48:25;93005.91;;;5.78;100.00
64602;BME280;51013;42.630;23.192;2022-10-16T06:50:57;93034.03;;;5.95;100.00
64602;BME280;51013;42.630;23.192;2022-10-16T06:53:24;92865.06;;;5.00;100.00
64602;BME280;51013;42.630;23.192;2022-10-16T06:55:52;93135.41;;;6.93;100.00
64602;BME280;51013;42.630;23.192;2022-10-16T06:58:19;93113.00;;;6.92;100.00
64602;BME280;51013;42.630;23.192;2022-10-16T07:00:47;93030.53;;;6.41;100.00
64602;BME280;51013;42.630;23.192;2022-10-16T07:03:14;93030.22;;;6.42;100.00
64602;BME280;51013;42.630;23.192;2022-10-16T07:05:42;93026.63;;;6.52;100.00
64602;BME280;51013;42.630;23.192;2022-10-16T07:08:09;93151.06;;;7.43;100.00
64602;BME280;51013;42.630;23.192;2022-10-16T07:10:36;93100.16;;;7.18;100.00
64602;BME280;51013;42.630;23.192;2022-10-16T07:13:03;93031.41;;;6.73;100.00
64602;BME280;51013;42.630;23.192;2022-10-16T07:15:30;93087.28;;;7.22;100.00
64602;BME280;51013;42.630;23.192;2022-10-16T07:17:59;93161.03;;;7.87;100.00
64602;BME280;51013;42.630;23.192;2022-10-16T07:20:26;93102.81;;;7.50;100.00
64602;BME280;51013;42.630;23.192;2022-10-16T07:22:53;93153.25;;;7.95;100.00
64602;BME280;51013;42.630;23.192;2022-10-16T07:25:20;93145.47;;;7.81;100.00
64602;BME280;51013;42.630;23.192;2022-10-16T07:27:47;93090.56;;;7.59;99.30
64602;BME280;51013;42.630;23.192;2022-10-16T07:30:14;93092.94;;;7.69;99.13
64602;BME280;51013;42.630;23.192;2022-10-16T07:32:41;93018.47;;;7.13;98.88
64602;BME280;51013;42.630;23.192;2022-10-16T07:35:09;93120.72;;;7.88;98.92
64602;BME280;51013;42.630;23.192;2022-10-16T07:37:36;93167.41;;;8.26;98.26
64602;BME280;51013;42.630;23.192;2022-10-16T07:40:04;93065.56;;;7.67;98.63
64602;BME280;51013;42.630;23.192;2022-10-16T07:42:31;92990.31;;;7.32;97.33
64602;BME280;51013;42.630;23.192;2022-10-16T07:44:59;93138.63;;;8.26;97.08
64602;BME280;51013;42.630;23.192;2022-10-16T07:47:26;93168.81;;;8.63;96.51
64602;BME280;51013;42.630;23.192;2022-10-16T07:49:53;93115.53;;;8.28;96.01
64602;BME280;51013;42.630;23.192;2022-10-16T07:52:21;93180.09;;;8.72;96.05
64602;BME280;51013;42.630;23.192;2022-10-16T07:54:48;93116.22;;;8.42;94.92
64602;BME280;51013;42.630;23.192;2022-10-16T07:57:15;93160.97;;;8.72;94.65
64602;BME280;51013;42.630;23.192;2022-10-16T07:59:44;93189.41;;;8.96;94.83
64602;BME280;51013;42.630;23.192;2022-10-16T08:02:11;93061.44;;;8.23;94.32
64602;BME280;51013;42.630;23.192;2022-10-16T08:04:38;93183.13;;;9.23;93.91
64602;BME280;51013;42.630;23.192;2022-10-16T08:07:06;92991.06;;;8.04;94.12
64602;BME280;51013;42.630;23.192;2022-10-16T08:09:35;93182.06;;;9.50;92.68
64602;BME280;51013;42.630;23.192;2022-10-16T08:12:02;93149.50;;;9.34;91.69
64602;BME280;51013;42.630;23.192;2022-10-16T08:14:30;93124.06;;;9.26;91.01
64602;BME280;51013;42.630;23.192;2022-10-16T08:16:57;93182.97;;;9.80;89.88
64602;BME280;51013;42.630;23.192;2022-10-16T08:19:24;93193.00;;;9.87;90.40
64602;BME280;51013;42.630;23.192;2022-10-16T08:21:51;93187.31;;;9.94;88.05
64602;BME280;51013;42.630;23.192;2022-10-16T08:24:18;93157.84;;;9.79;88.85
64602;BME280;51013;42.630;23.192;2022-10-16T08:26:47;93151.34;;;9.77;87.81
64602;BME280;51013;42.630;23.192;2022-10-16T08:29:14;92901.03;;;8.22;88.29
64602;BME280;51013;42.630;23.192;2022-10-16T08:31:41;93132.63;;;9.87;86.95
64602;BME280;51013;42.630;23.192;2022-10-16T08:34:08;93123.84;;;9.83;86.13
64602;BME280;51013;42.630;23.192;2022-10-16T08:36:34;93124.28;;;10.02;85.74
64602;BME280;51013;42.630;23.192;2022-10-16T08:39:03;93122.88;;;10.05;85.76
64602;BME280;51013;42.630;23.192;2022-10-16T08:42:06;93096.00;;;10.08;85.37
64602;BME280;51013;42.630;23.192;2022-10-16T08:45:08;93129.31;;;10.25;85.41
64602;BME280;51013;42.630;23.192;2022-10-16T08:47:49;93170.56;;;10.72;84.94
64602;BME280;51013;42.630;23.192;2022-10-16T08:50:23;93189.00;;;10.93;84.65
64602;BME280;51013;42.630;23.192;2022-10-16T08:52:52;93188.22;;;11.01;83.30
64602;BME280;51013;42.630;23.192;2022-10-16T08:55:29;93201.00;;;11.11;83.29
64602;BME280;51013;42.630;23.192;2022-10-16T08:57:59;93157.59;;;10.96;82.53
64602;BME280;51013;42.630;23.192;2022-10-16T09:00:26;93076.00;;;10.33;82.48
64602;BME280;51013;42.630;23.192;2022-10-16T09:03:02;93207.03;;;11.33;81.94
64602;BME280;51013;42.630;23.192;2022-10-16T09:06:01;93053.63;;;10.57;80.69
64602;BME280;51013;42.630;23.192;2022-10-16T09:08:39;93022.03;;;10.45;80.68
64602;BME280;51013;42.630;23.192;2022-10-16T09:11:14;93104.19;;;11.05;79.18
64602;BME280;51013;42.630;23.192;2022-10-16T09:13:51;93054.31;;;10.96;81.23
64602;BME280;51013;42.630;23.192;2022-10-16T09:16:27;93067.81;;;11.07;79.28
64602;BME280;51013;42.630;23.192;2022-10-16T09:19:00;93043.91;;;11.20;79.63
64602;BME280;51013;42.630;23.192;2022-10-16T09:21:31;93143.84;;;11.96;75.44
64602;BME280;51013;42.630;23.192;2022-10-16T09:24:09;93117.91;;;11.86;74.92
64602;BME280;51013;42.630;23.192;2022-10-16T09:26:40;93108.56;;;11.76;72.70
64602;BME280;51013;42.630;23.192;2022-10-16T09:29:11;93188.78;;;12.45;72.42
64602;BME280;51013;42.630;23.192;2022-10-16T09:31:43;93141.09;;;12.26;71.03
64602;BME280;51013;42.630;23.192;2022-10-16T09:34:20;92917.13;;;10.81;70.67
64602;BME280;51013;42.630;23.192;2022-10-16T09:36:50;93165.94;;;12.61;69.40
64602;BME280;51013;42.630;23.192;2022-10-16T09:39:46;93000.09;;;11.58;65.18
64602;BME280;51013;42.630;23.192;2022-10-16T09:42:17;93190.69;;;12.94;67.11
64602;BME280;51013;42.630;23.192;2022-10-16T09:44:50;93060.41;;;12.21;66.00
64602;BME280;51013;42.630;23.192;2022-10-16T09:47:20;93062.94;;;12.42;65.00
64602;BME280;51013;42.630;23.192;2022-10-16T09:49:52;93180.00;;;13.27;64.99
64602;BME280;51013;42.630;23.192;2022-10-16T09:52:21;92924.41;;;11.79;61.50
64602;BME280;51013;42.630;23.192;2022-10-16T09:54:49;93047.78;;;12.63;61.60
64602;BME280;51013;42.630;23.192;2022-10-16T09:57:17;93173.16;;;13.51;60.21
64602;BME280;51013;42.630;23.192;2022-10-16T09:59:50;93143.72;;;13.36;61.36
64602;BME280;51013;42.630;23.192;2022-10-16T10:02:19;93070.91;;;12.95;60.41
64602;BME280;51013;42.630;23.192;2022-10-16T10:04:50;92869.81;;;11.76;59.00
64602;BME280;51013;42.630;23.192;2022-10-16T10:07:24;92845.03;;;11.65;58.62
64602;BME280;51013;42.630;23.192;2022-10-16T10:09:55;92889.56;;;12.07;58.93
64602;BME280;51013;42.630;23.192;2022-10-16T10:12:25;93142.75;;;13.97;57.61
64602;BME280;51013;42.630;23.192;2022-10-16T10:14:56;93087.53;;;13.64;58.23
64602;BME280;51013;42.630;23.192;2022-10-16T10:17:28;92963.31;;;13.00;59.19
64602;BME280;51013;42.630;23.192;2022-10-16T10:19:58;93070.00;;;13.72;56.95
64602;BME280;51013;42.630;23.192;2022-10-16T10:22:31;92928.06;;;12.93;58.55
64602;BME280;51013;42.630;23.192;2022-10-16T10:25:22;93028.88;;;13.71;54.48
64602;BME280;51013;42.630;23.192;2022-10-16T10:28:15;93016.69;;;13.82;53.23
64602;BME280;51013;42.630;23.192;2022-10-16T10:30:56;93076.38;;;14.31;55.27
64602;BME280;51013;42.630;23.192;2022-10-16T10:33:31;93075.53;;;14.42;55.33
64602;BME280;51013;42.630;23.192;2022-10-16T10:36:09;93022.75;;;14.14;53.63
64602;BME280;51013;42.630;23.192;2022-10-16T10:38:46;92869.59;;;13.19;51.91
64602;BME280;51013;42.630;23.192;2022-10-16T10:41:54;93054.19;;;14.51;53.04
64602;BME280;51013;42.630;23.192;2022-10-16T10:44:35;92977.19;;;14.01;52.59
64602;BME280;51013;42.630;23.192;2022-10-16T10:47:18;93134.97;;;15.32;52.46
64602;BME280;51013;42.630;23.192;2022-10-16T10:49:59;93109.38;;;15.20;52.08
64602;BME280;51013;42.630;23.192;2022-10-16T10:52:45;92872.16;;;13.79;51.44
64602;BME280;51013;42.630;23.192;2022-10-16T10:55:23;92867.31;;;13.81;52.11
64602;BME280;51013;42.630;23.192;2022-10-16T10:58:10;93122.72;;;15.62;51.76
64602;BME280;51013;42.630;23.192;2022-10-16T11:00:48;93062.91;;;15.22;51.52
64602;BME280;51013;42.630;23.192;2022-10-16T11:03:35;92864.59;;;14.13;50.67
64602;BME280;51013;42.630;23.192;2022-10-16T11:06:09;93112.50;;;16.00;49.46
64602;BME280;51013;42.630;23.192;2022-10-16T11:08:39;93144.72;;;16.25;48.78
64602;BME280;51013;42.630;23.192;2022-10-16T11:11:11;92850.69;;;14.35;48.54
64602;BME280;51013;42.630;23.192;2022-10-16T11:13:48;92960.53;;;15.27;47.10
64602;BME280;51013;42.630;23.192;2022-10-16T11:16:22;93064.06;;;16.03;47.26
64602;BME280;51013;42.630;23.192;2022-10-16T11:18:59;92963.88;;;15.43;48.58
64602;BME280;51013;42.630;23.192;2022-10-16T11:21:31;92880.69;;;15.01;46.42
64602;BME280;51013;42.630;23.192;2022-10-16T11:45:24;93107.84;;;17.42;43.70
64602;BME280;51013;42.630;23.192;2022-10-16T11:48:00;92959.91;;;16.52;40.97
64602;BME280;51013;42.630;23.192;2022-10-16T11:50:34;92930.13;;;16.32;41.82
64602;BME280;51013;42.630;23.192;2022-10-16T11:53:15;92947.84;;;16.55;40.69
64602;BME280;51013;42.630;23.192;2022-10-16T11:55:45;93100.91;;;17.65;40.96
64602;BME280;51013;42.630;23.192;2022-10-16T11:58:22;92826.88;;;15.86;40.00
64602;BME280;51013;42.630;23.192;2022-10-16T12:00:59;93004.44;;;17.23;39.88
64602;BME280;51013;42.630;23.192;2022-10-16T12:03:34;92980.59;;;17.27;42.23
64602;BME280;51013;42.630;23.192;2022-10-16T12:06:25;92879.06;;;16.69;38.69
64602;BME280;51013;42.630;23.192;2022-10-16T12:08:58;92852.38;;;16.55;38.04
64602;BME280;51013;42.630;23.192;2022-10-16T12:11:35;92830.88;;;16.63;39.12
64602;BME280;51013;42.630;23.192;2022-10-16T12:14:38;92826.75;;;16.36;39.12
64602;BME280;51013;42.630;23.192;2022-10-16T12:17:56;93027.63;;;17.97;37.79
64602;BME280;51013;42.630;23.192;2022-10-16T12:20:31;92827.69;;;16.81;38.44
64602;BME280;51013;42.630;23.192;2022-10-16T12:23:20;92837.38;;;16.70;38.53
64602;BME280;51013;42.630;23.192;2022-10-16T12:25:57;92847.47;;;16.91;37.94
64602;BME280;51013;42.630;23.192;2022-10-16T12:28:31;93042.16;;;18.52;38.70
64602;BME280;51013;42.630;23.192;2022-10-16T12:43:36;93123.22;;;19.90;36.62
64602;BME280;51013;42.630;23.192;2022-10-16T12:54:14;93017.56;;;19.39;34.78
64602;BME280;51013;42.630;23.192;2022-10-16T12:57:24;92847.84;;;18.30;34.83
64602;BME280;51013;42.630;23.192;2022-10-16T13:09:30;92861.19;;;18.41;35.91
64602;BME280;51013;42.630;23.192;2022-10-16T13:15:01;93050.06;;;19.73;35.99
64602;BME280;51013;42.630;23.192;2022-10-16T13:17:41;93031.66;;;19.47;36.48
64602;BME280;51013;42.630;23.192;2022-10-16T13:20:18;92852.75;;;18.28;35.30
64602;BME280;51013;42.630;23.192;2022-10-16T13:23:21;92861.16;;;18.34;34.47
64602;BME280;51013;42.630;23.192;2022-10-16T13:26:09;93043.59;;;19.78;34.02
64602;BME280;51013;42.630;23.192;2022-10-16T13:28:46;92859.69;;;18.44;34.53
64602;BME280;51013;42.630;23.192;2022-10-16T13:31:22;92884.50;;;18.66;34.70
64602;BME280;51013;42.630;23.192;2022-10-16T13:34:23;92880.41;;;18.86;34.53
64602;BME280;51013;42.630;23.192;2022-10-16T13:36:57;92975.31;;;19.37;35.04
64602;BME280;51013;42.630;23.192;2022-10-16T13:39:26;93038.66;;;19.94;34.78
64602;BME280;51013;42.630;23.192;2022-10-16T13:42:14;92930.03;;;19.45;35.00
64602;BME280;51013;42.630;23.192;2022-10-16T13:44:46;93132.56;;;20.68;34.57
64602;BME280;51013;42.630;23.192;2022-10-16T13:47:16;93154.25;;;20.49;35.06
64602;BME280;51013;42.630;23.192;2022-10-16T13:49:44;93102.38;;;20.28;34.39
64602;BME280;51013;42.630;23.192;2022-10-16T13:52:18;93066.44;;;19.79;35.55
64602;BME280;51013;42.630;23.192;2022-10-16T13:54:46;92982.88;;;19.25;35.84
64602;BME280;51013;42.630;23.192;2022-10-16T13:57:16;93142.00;;;20.26;34.73
64602;BME280;51013;42.630;23.192;2022-10-16T13:59:44;93013.72;;;19.33;35.72
64602;BME280;51013;42.630;23.192;2022-10-16T14:02:20;92865.72;;;18.33;35.48
64602;BME280;51013;42.630;23.192;2022-10-16T14:04:52;93162.22;;;20.38;36.57
64602;BME280;51013;42.630;23.192;2022-10-16T14:07:23;93165.66;;;20.46;35.44
64602;BME280;51013;42.630;23.192;2022-10-16T14:09:52;93157.66;;;20.38;35.02
64602;BME280;51013;42.630;23.192;2022-10-16T14:12:22;93136.25;;;20.13;35.82